createdAt,value
2023-03-19T00:03:13.001Z,56.92
2023-03-19T00:08:12.918Z,57.01
2023-03-19T00:13:12.821Z,57.09
2023-03-19T00:18:12.752Z,57.14
2023-03-19T00:23:12.695Z,57.21
2023-03-19T00:28:12.598Z,57.25
2023-03-19T00:33:12.586Z,57.33
2023-03-19T00:38:12.467Z,57.38
2023-03-19T00:43:12.413Z,57.43
2023-03-19T00:48:12.345Z,57.47
2023-03-19T00:53:12.279Z,57.54
2023-03-19T00:58:12.212Z,57.59
2023-03-19T01:03:12.142Z,57.63
2023-03-19T01:08:39.452Z,57.46
2023-03-19T01:13:31.890Z,57.81
2023-03-19T01:18:31.802Z,57.98
2023-03-19T01:23:31.734Z,58.05
2023-03-19T01:28:32.349Z,58.12
2023-03-19T01:33:31.595Z,58.16
2023-03-19T01:38:31.567Z,58.18
2023-03-19T01:43:31.467Z,58.23
2023-03-19T01:48:31.459Z,58.34
2023-03-19T01:53:31.325Z,58.53
2023-03-19T01:58:31.283Z,58.65
2023-03-19T02:03:31.192Z,58.73
2023-03-19T02:08:31.128Z,58.78
2023-03-19T02:13:31.074Z,58.86
2023-03-19T02:18:31.005Z,58.96
2023-03-19T02:23:30.930Z,59.11
2023-03-19T02:28:30.886Z,59.24
2023-03-19T02:33:30.807Z,59.35
2023-03-19T02:38:30.742Z,59.50
2023-03-19T02:43:30.665Z,59.61
2023-03-19T02:48:30.606Z,59.76
2023-03-19T02:53:30.551Z,59.89
2023-03-19T02:58:30.463Z,59.99
2023-03-19T03:03:30.384Z,60.09
2023-03-19T03:08:30.341Z,60.19
2023-03-19T03:13:30.290Z,60.26
2023-03-19T03:18:30.244Z,60.35
2023-03-19T03:23:30.138Z,60.42
2023-03-19T03:28:30.072Z,60.48
2023-03-19T03:33:29.980Z,60.53
2023-03-19T03:38:29.932Z,60.57
2023-03-19T03:43:29.894Z,60.57
2023-03-19T03:48:29.843Z,60.58
2023-03-19T03:53:29.720Z,60.60
2023-03-19T03:58:29.666Z,60.58
2023-03-19T04:03:29.715Z,60.54
2023-03-19T04:08:29.533Z,60.55
2023-03-19T04:13:29.461Z,60.64
2023-03-19T04:18:29.396Z,60.71
2023-03-19T04:23:29.311Z,60.71
2023-03-19T04:28:29.269Z,60.72
2023-03-19T04:33:29.174Z,60.78
2023-03-19T04:38:29.121Z,60.88
2023-03-19T04:43:29.081Z,60.89
2023-03-19T04:48:29.002Z,60.91
2023-03-19T04:53:28.925Z,60.96
2023-03-19T04:58:28.862Z,60.99
2023-03-19T05:03:28.828Z,61.05
2023-03-19T05:08:28.732Z,61.07
2023-03-19T05:13:28.645Z,61.11
2023-03-19T05:18:28.583Z,61.16
2023-03-19T05:23:28.519Z,61.40
2023-03-19T05:28:28.527Z,61.33
2023-03-19T05:33:28.383Z,61.32
2023-03-19T05:38:28.320Z,61.33
2023-03-19T05:43:28.246Z,61.34
2023-03-19T05:48:28.182Z,61.31
2023-03-19T05:53:28.102Z,61.23
2023-03-19T05:58:28.046Z,61.21
2023-03-19T06:03:27.977Z,61.18
2023-03-19T06:08:27.887Z,61.05
2023-03-19T06:13:27.848Z,60.86
2023-03-19T06:18:27.780Z,60.54
2023-03-19T06:23:27.717Z,60.33
2023-03-19T06:28:27.630Z,60.26
2023-03-19T06:33:27.563Z,60.28
2023-03-19T06:38:27.502Z,60.26
2023-03-19T06:43:27.441Z,60.24
2023-03-19T06:48:27.357Z,60.22
2023-03-19T06:53:27.349Z,60.17
2023-03-19T06:58:27.249Z,60.18
2023-03-19T07:03:38.117Z,59.96
2023-03-19T07:08:30.521Z,60.26
2023-03-19T07:13:30.450Z,60.58
2023-03-19T07:18:30.380Z,60.58
2023-03-19T07:23:30.313Z,60.64
2023-03-19T07:28:30.251Z,60.63
2023-03-19T07:33:30.173Z,60.60
2023-03-19T07:38:30.112Z,60.50
2023-03-19T07:43:30.040Z,60.33
2023-03-19T07:48:29.998Z,60.05
2023-03-19T07:53:29.893Z,59.81
2023-03-19T07:58:29.835Z,59.74
2023-03-19T08:03:29.774Z,59.42
2023-03-19T08:08:29.707Z,59.03
2023-03-19T08:13:29.624Z,58.63
2023-03-19T08:18:29.567Z,57.99
2023-03-19T08:23:29.560Z,57.81
2023-03-19T08:28:29.437Z,58.19
2023-03-19T08:33:29.347Z,58.34
2023-03-19T08:38:29.351Z,58.26
2023-03-19T08:43:29.218Z,58.28
2023-03-19T08:48:29.176Z,58.31
2023-03-19T08:53:29.100Z,57.89
2023-03-19T08:58:29.025Z,57.98
2023-03-19T09:03:28.957Z,57.97
2023-03-19T09:08:28.907Z,58.26
2023-03-19T09:13:28.800Z,58.47
2023-03-19T09:18:28.763Z,58.83
2023-03-19T09:23:28.702Z,59.18
2023-03-19T09:28:28.629Z,59.30
2023-03-19T09:33:28.590Z,58.93
2023-03-19T09:38:28.501Z,58.46
2023-03-19T09:43:28.423Z,57.94
2023-03-19T09:48:28.330Z,58.10
2023-03-19T09:53:28.271Z,58.92
2023-03-19T09:58:28.232Z,59.50
2023-03-19T10:03:29.006Z,59.73
2023-03-19T10:08:28.112Z,60.11
2023-03-19T10:13:27.998Z,60.80
2023-03-19T10:18:27.962Z,61.43
2023-03-19T10:23:27.865Z,61.88
2023-03-19T10:28:27.811Z,62.05
2023-03-19T10:33:27.739Z,61.74
2023-03-19T10:38:27.679Z,61.42
2023-03-19T10:43:27.607Z,60.56
2023-03-19T10:48:28.353Z,59.42
2023-03-19T10:53:27.499Z,57.64
2023-03-19T10:58:27.441Z,55.87
2023-03-19T11:03:27.317Z,56.66
2023-03-19T11:08:35.610Z,57.57
2023-03-19T11:13:28.338Z,58.79
2023-03-19T11:18:27.326Z,59.30
2023-03-19T11:23:27.066Z,59.92
2023-03-19T11:28:27.007Z,60.46
2023-03-19T11:33:26.951Z,61.25
2023-03-19T11:38:26.888Z,62.03
2023-03-19T11:43:26.786Z,62.34
2023-03-19T11:48:26.731Z,62.46
2023-03-19T11:53:26.679Z,62.73
2023-03-19T11:58:26.619Z,62.61
2023-03-19T12:03:26.556Z,62.17
2023-03-19T12:08:26.488Z,61.83
2023-03-19T12:13:26.363Z,61.00
2023-03-19T12:18:26.355Z,61.11
2023-03-19T12:23:26.257Z,62.07
2023-03-19T12:28:26.243Z,62.72
2023-03-19T12:33:26.123Z,62.74
2023-03-19T12:38:26.075Z,62.75
2023-03-19T12:43:25.987Z,62.12
2023-03-19T12:48:25.939Z,60.92
2023-03-19T12:53:25.846Z,60.26
2023-03-19T12:58:25.798Z,59.02
2023-03-19T13:03:25.713Z,57.00
2023-03-19T13:08:25.660Z,55.12
2023-03-19T13:13:25.610Z,55.14
2023-03-19T13:18:25.500Z,55.76
2023-03-19T13:23:25.444Z,56.36
2023-03-19T13:28:25.422Z,56.06
2023-03-19T13:33:25.360Z,55.34
2023-03-19T13:38:25.656Z,54.62
2023-03-19T13:43:28.363Z,54.08
2023-03-19T13:48:25.167Z,53.62
2023-03-19T13:53:25.028Z,53.20
2023-03-19T13:58:24.995Z,54.04
2023-03-19T14:03:25.771Z,55.35
2023-03-19T14:08:24.899Z,53.04
2023-03-19T14:13:24.811Z,52.56
2023-03-19T14:18:24.813Z,53.14
2023-03-19T14:23:37.598Z,54.09
2023-03-19T14:28:25.685Z,54.76
2023-03-19T14:33:24.521Z,55.42
2023-03-19T14:38:24.470Z,56.54
2023-03-19T14:43:24.375Z,57.15
2023-03-19T14:48:24.322Z,57.38
2023-03-19T14:53:24.224Z,57.50
2023-03-19T14:58:24.190Z,56.08
2023-03-19T15:03:24.091Z,57.45
2023-03-19T15:08:24.031Z,58.47
2023-03-19T15:13:24.051Z,58.95
2023-03-19T15:18:23.901Z,57.47
2023-03-19T15:23:27.079Z,58.29
2023-03-19T15:28:23.762Z,58.83
2023-03-19T15:33:37.317Z,59.06
2023-03-19T15:38:24.646Z,59.22
2023-03-19T15:43:23.538Z,59.38
2023-03-19T15:48:23.518Z,59.42
2023-03-19T15:53:23.432Z,59.45
2023-03-19T15:58:23.364Z,59.59
2023-03-19T16:03:23.283Z,59.71
2023-03-19T16:08:23.217Z,59.76
2023-03-19T16:13:23.138Z,59.65
2023-03-19T16:18:23.087Z,59.40
2023-03-19T16:23:23.000Z,59.50
2023-03-19T16:28:22.961Z,59.82
2023-03-19T16:33:22.886Z,60.09
2023-03-19T16:38:22.875Z,60.26
2023-03-19T16:43:22.742Z,60.51
2023-03-19T16:48:22.682Z,60.78
2023-03-19T16:53:22.614Z,60.98
2023-03-19T16:58:22.576Z,61.18
2023-03-19T17:03:22.436Z,61.36
2023-03-19T17:08:22.417Z,61.49
2023-03-19T17:13:22.318Z,61.59
2023-03-19T17:18:22.268Z,61.68
2023-03-19T17:23:22.179Z,61.77
2023-03-19T17:28:22.164Z,61.92
2023-03-19T17:33:22.028Z,62.02
2023-03-19T17:38:22.007Z,62.13
2023-03-19T17:43:21.927Z,62.24
2023-03-19T17:48:21.879Z,62.33
2023-03-19T17:53:21.814Z,62.43
2023-03-19T17:58:21.754Z,62.56
2023-03-19T18:03:22.015Z,62.67
2023-03-19T18:08:21.592Z,62.80
2023-03-19T18:13:21.527Z,62.91
2023-03-19T18:18:21.459Z,63.03
2023-03-19T18:23:21.403Z,63.17
2023-03-19T18:28:21.329Z,63.27
2023-03-19T18:33:22.232Z,63.33
2023-03-19T18:38:21.233Z,63.44
2023-03-19T18:43:21.120Z,63.55
2023-03-19T18:48:21.072Z,63.67
2023-03-19T18:53:20.990Z,63.77
2023-03-19T18:58:20.964Z,63.82
2023-03-19T19:03:20.887Z,63.89
2023-03-19T19:08:21.053Z,63.94
2023-03-19T19:13:20.735Z,63.98
2023-03-19T19:18:20.627Z,64.01
2023-03-19T19:23:20.618Z,64.04
2023-03-19T19:28:20.603Z,64.07
2023-03-19T19:33:20.455Z,64.12
2023-03-19T19:38:20.370Z,64.17
2023-03-19T19:43:20.347Z,64.21
2023-03-19T19:48:20.236Z,64.25
2023-03-19T19:53:20.181Z,64.29
2023-03-19T19:58:20.098Z,64.35
2023-03-19T20:03:20.100Z,64.37
2023-03-19T20:08:19.980Z,64.42
2023-03-19T20:13:19.895Z,64.49
2023-03-19T20:18:19.847Z,64.56
2023-03-19T20:23:19.786Z,64.59
2023-03-19T20:28:20.042Z,64.63
2023-03-19T20:33:19.720Z,64.67
2023-03-19T20:38:19.581Z,64.71
2023-03-19T20:43:19.511Z,64.73
2023-03-19T20:48:19.443Z,64.76
2023-03-19T20:53:19.383Z,64.77
2023-03-19T20:58:19.292Z,64.81
2023-03-19T21:03:19.359Z,64.89
2023-03-19T21:08:19.161Z,64.97
2023-03-19T21:13:19.078Z,65.01
2023-03-19T21:18:19.052Z,65.04
2023-03-19T21:23:18.976Z,65.09
2023-03-19T21:28:18.887Z,65.15
2023-03-19T21:33:18.970Z,65.21
2023-03-19T21:38:18.767Z,65.28
2023-03-19T21:43:18.713Z,65.35
2023-03-19T21:48:18.621Z,65.43
2023-03-19T21:53:18.563Z,65.51
2023-03-19T21:58:18.473Z,65.60
2023-03-19T22:03:18.434Z,65.69
2023-03-19T22:08:18.337Z,65.76
2023-03-19T22:13:18.293Z,65.83
2023-03-19T22:18:18.201Z,65.92
2023-03-19T22:23:18.166Z,66.01
2023-03-19T22:28:18.075Z,66.09
2023-03-19T22:33:18.018Z,66.12
2023-03-19T22:38:17.958Z,66.22
2023-03-19T22:43:17.888Z,66.31
2023-03-19T22:48:17.805Z,66.41
2023-03-19T22:53:17.756Z,66.43
2023-03-19T22:58:17.666Z,66.46
2023-03-19T23:03:17.610Z,66.53
2023-03-19T23:08:17.530Z,66.59
2023-03-19T23:13:17.476Z,66.60
2023-03-19T23:18:17.388Z,66.62
2023-03-19T23:23:19.237Z,66.68
2023-03-19T23:28:17.262Z,66.73
2023-03-19T23:33:17.217Z,66.79
2023-03-19T23:38:17.129Z,66.82
2023-03-19T23:43:17.073Z,66.84
2023-03-19T23:48:17.000Z,66.91
2023-03-19T23:53:16.939Z,66.92
2023-03-19T23:58:16.857Z,67.01
